Time;durP1;ratioP1;P1;durP2;ratioP2;P2;SDS_P1;SDS_P2;PMS_P1;PMS_P2;Temp;Humidity;BMP_temperature;BMP_pressure;BME280_temperature;BME280_humidity;BME280_pressure;Samples;Min_cycle;Max_cycle;Signal;HPM_P1;HPM_P2
2023/03/26 00:01:59;;;;;;;5.30;1.70;;;;;;;7.46;100.00;99144.40;213780;1292;138773;-86
2023/03/26 00:07:00;;;;;;;3.80;1.20;;;;;;;7.45;100.00;99143.86;214044;1291;138826;-87
2023/03/26 00:12:00;;;;;;;6.40;1.80;;;;;;;7.42;100.00;99140.59;213709;1293;138650;-87
2023/03/26 00:17:01;;;;;;;6.50;2.40;;;;;;;7.41;100.00;99145.96;214038;1289;139272;-87
2023/03/26 00:22:02;;;;;;;7.30;2.00;;;;;;;7.39;100.00;99151.90;213279;1293;140685;-88
2023/03/26 00:27:03;;;;;;;6.30;2.10;;;;;;;7.38;100.00;99148.06;214048;1289;138880;-88
2023/03/26 00:32:03;;;;;;;6.40;2.10;;;;;;;7.37;100.00;99142.90;213571;1294;138724;-90
2023/03/26 00:37:04;;;;;;;6.90;2.80;;;;;;;7.37;100.00;99136.80;214080;1289;138210;-89
2023/03/26 00:42:05;;;;;;;8.20;3.30;;;;;;;7.36;100.00;99133.52;213206;1291;138504;-90
2023/03/26 00:47:06;;;;;;;8.80;3.00;;;;;;;7.36;100.00;99125.45;213724;1289;138542;-88
2023/03/26 00:52:07;;;;;;;9.20;3.70;;;;;;;7.33;100.00;99121.15;213371;1291;139546;-88
2023/03/26 00:57:09;;;;;;;9.30;4.10;;;;;;;7.33;100.00;99113.65;213938;1294;138544;-89
2023/03/26 01:02:15;;;;;;;14.20;4.30;;;;;;;7.32;100.00;99107.70;213403;1289;138585;-89
2023/03/26 01:07:20;;;;;;;12.90;4.20;;;;;;;7.28;100.00;99104.33;213778;1292;98300;-89
2023/03/26 01:12:24;;;;;;;12.20;3.70;;;;;;;7.26;100.00;99105.02;213455;1294;141173;-89
2023/03/26 01:17:32;;;;;;;12.10;3.90;;;;;;;7.23;100.00;99104.39;213903;1294;138802;-89
2023/03/26 01:22:36;;;;;;;9.20;3.10;;;;;;;7.19;100.00;99102.02;213218;1294;139788;-88
2023/03/26 01:27:49;;;;;;;8.60;2.90;;;;;;;7.17;100.00;99107.58;213725;1294;138537;-89
2023/03/26 01:33:02;;;;;;;9.80;2.50;;;;;;;7.17;100.00;99108.76;213311;1289;139247;-89
2023/03/26 01:38:17;;;;;;;7.90;2.90;;;;;;;7.18;100.00;99108.45;214005;1293;107423;-88
2023/03/26 01:43:46;;;;;;;8.40;2.80;;;;;;;7.20;100.00;99101.41;213544;1294;138649;-90
2023/03/26 01:48:47;;;;;;;7.80;2.20;;;;;;;7.23;100.00;99099.77;213411;1289;138591;-89
2023/03/26 01:53:47;;;;;;;7.30;2.20;;;;;;;7.25;100.00;99097.75;213989;1295;139715;-88
2023/03/26 01:59:12;;;;;;;9.50;3.00;;;;;;;7.27;100.00;99093.93;213344;1292;139716;-88
2023/03/26 02:04:45;;;;;;;6.80;2.30;;;;;;;7.28;100.00;99088.15;213641;1293;140623;-87
2023/03/26 02:09:52;;;;;;;8.30;2.40;;;;;;;7.31;100.00;99087.13;213167;1294;138982;-88
2023/03/26 02:14:53;;;;;;;5.50;1.70;;;;;;;7.33;100.00;99082.98;213831;1294;139475;-88
2023/03/26 02:19:53;;;;;;;6.70;2.10;;;;;;;7.34;100.00;99084.48;213406;1290;138924;-91
2023/03/26 02:24:54;;;;;;;10.00;2.50;;;;;;;7.36;100.00;99081.83;213567;1291;138727;-90
2023/03/26 02:29:55;;;;;;;7.20;1.90;;;;;;;7.37;100.00;99082.45;213185;1295;140109;-90
2023/03/26 02:34:56;;;;;;;6.70;2.60;;;;;;;7.38;100.00;99076.91;213664;1294;140108;-89
2023/03/26 02:39:56;;;;;;;4.80;1.80;;;;;;;7.41;100.00;99073.23;213347;1295;139271;-86
2023/03/26 02:44:56;;;;;;;6.40;2.00;;;;;;;7.44;100.00;99076.30;213970;1302;138515;-88
2023/03/26 02:49:57;;;;;;;5.60;1.80;;;;;;;7.46;100.00;99074.18;213456;1293;139009;-88
2023/03/26 02:54:57;;;;;;;7.30;1.60;;;;;;;7.48;100.00;99074.51;213879;1289;138596;-89
2023/03/26 02:59:57;;;;;;;6.40;1.80;;;;;;;7.50;100.00;99071.06;213369;1294;138580;-89
2023/03/26 03:05:00;;;;;;;3.60;1.40;;;;;;;7.52;100.00;99070.45;213974;1294;139256;-88
2023/03/26 03:10:01;;;;;;;11.70;2.20;;;;;;;7.54;100.00;99070.05;213373;1294;139362;-90
2023/03/26 03:15:02;;;;;;;4.90;1.70;;;;;;;7.56;100.00;99069.05;213791;1295;139314;-91
2023/03/26 03:20:05;;;;;;;7.90;2.40;;;;;;;7.56;100.00;99069.66;213395;1295;138524;-90
2023/03/26 03:25:08;;;;;;;6.10;2.30;;;;;;;7.56;100.00;99077.95;213865;1294;138406;-86
2023/03/26 03:30:11;;;;;;;4.90;1.70;;;;;;;7.55;100.00;99078.34;213413;1295;138714;-87
2023/03/26 03:35:11;;;;;;;7.90;2.00;;;;;;;7.55;100.00;99076.55;214032;1293;138999;-88
2023/03/26 03:40:12;;;;;;;6.20;2.00;;;;;;;7.54;100.00;99077.56;213345;1289;138770;-89
2023/03/26 03:45:13;;;;;;;7.60;2.00;;;;;;;7.54;100.00;99083.42;213854;1295;138717;-88
2023/03/26 03:50:14;;;;;;;4.10;1.90;;;;;;;7.55;100.00;99085.77;213465;1291;139097;-88
2023/03/26 03:55:14;;;;;;;6.10;2.20;;;;;;;7.55;100.00;99083.13;213818;1295;138619;-88
2023/03/26 04:00:15;;;;;;;3.80;2.00;;;;;;;7.56;100.00;99081.39;213272;1289;139047;-89
2023/03/26 04:05:16;;;;;;;4.00;1.70;;;;;;;7.57;100.00;99085.15;213734;1288;138785;-86
2023/03/26 04:10:16;;;;;;;8.30;2.50;;;;;;;7.57;100.00;99089.06;212985;1295;335878;-88
2023/03/26 04:15:17;;;;;;;7.30;2.20;;;;;;;7.58;100.00;99085.70;213808;1292;139018;-87
2023/03/26 04:20:18;;;;;;;4.50;1.70;;;;;;;7.58;100.00;99083.83;213187;1291;139763;-85
2023/03/26 04:25:20;;;;;;;4.30;1.90;;;;;;;7.58;100.00;99087.19;214012;1294;98194;-88
2023/03/26 04:30:20;;;;;;;5.70;1.80;;;;;;;7.58;100.00;99090.00;213135;1289;138658;-88
2023/03/26 04:35:22;;;;;;;5.30;2.00;;;;;;;7.57;100.00;99083.43;213872;1289;141517;-88
2023/03/26 04:40:23;;;;;;;5.10;1.80;;;;;;;7.57;100.00;99083.74;213218;1290;138713;-89
2023/03/26 04:45:23;;;;;;;4.90;1.80;;;;;;;7.57;100.00;99082.10;213925;1289;138920;-90
2023/03/26 04:50:25;;;;;;;4.50;1.70;;;;;;;7.56;100.00;99079.91;213367;1289;138736;-88
2023/03/26 04:55:38;;;;;;;4.20;2.10;;;;;;;7.57;100.00;99078.50;214099;1291;107644;-90
2023/03/26 05:00:40;;;;;;;5.70;1.50;;;;;;;7.57;100.00;99084.69;213342;1293;139096;-88
2023/03/26 05:05:40;;;;;;;7.60;3.10;;;;;;;7.56;100.00;99087.11;213830;1289;138978;-89
2023/03/26 05:10:41;;;;;;;9.00;1.70;;;;;;;7.56;100.00;99084.44;213507;1289;139327;-90
2023/03/26 05:15:41;;;;;;;4.10;1.70;;;;;;;7.56;100.00;99086.56;213858;1294;139059;-88
2023/03/26 05:20:42;;;;;;;5.60;1.50;;;;;;;7.56;100.00;99084.28;213318;1291;138665;-88
2023/03/26 05:25:43;;;;;;;5.80;1.70;;;;;;;7.56;100.00;99082.33;213746;1295;98043;-87
2023/03/26 05:30:43;;;;;;;5.70;1.90;;;;;;;7.55;100.00;99089.14;213355;1291;138987;-88
2023/03/26 05:35:44;;;;;;;3.80;1.30;;;;;;;7.55;100.00;99091.34;213796;1291;139139;-89
2023/03/26 05:40:45;;;;;;;3.60;1.70;;;;;;;7.55;100.00;99091.40;213455;1292;139372;-87
2023/03/26 05:45:46;;;;;;;5.30;1.50;;;;;;;7.54;100.00;99099.23;213854;1289;139090;-86
2023/03/26 05:50:52;;;;;;;3.20;1.40;;;;;;;7.50;100.00;99103.77;213231;1289;138975;-88
2023/03/26 05:55:56;;;;;;;4.70;1.50;;;;;;;7.50;100.00;99110.02;213923;1289;106771;-88
2023/03/26 06:00:57;;;;;;;3.90;1.70;;;;;;;7.53;100.00;99116.52;213302;1292;139953;-88
2023/03/26 06:05:58;;;;;;;5.40;1.30;;;;;;;7.60;100.00;99119.58;213823;1295;138364;-88
2023/03/26 06:11:00;;;;;;;4.00;1.40;;;;;;;7.65;100.00;99118.50;213428;1291;139134;-88
2023/03/26 06:16:01;;;;;;;3.20;1.20;;;;;;;7.70;100.00;99122.34;213919;1289;138885;-87
2023/03/26 06:21:03;;;;;;;6.40;1.50;;;;;;;7.74;100.00;99125.08;213442;1288;139090;-88
2023/03/26 06:26:04;;;;;;;4.20;1.60;;;;;;;7.80;100.00;99131.48;214154;1292;105786;-89
2023/03/26 06:31:05;;;;;;;5.30;1.40;;;;;;;7.84;100.00;99138.15;213398;1288;139188;-90
2023/03/26 06:36:06;;;;;;;5.50;1.40;;;;;;;7.85;100.00;99136.90;213839;1288;138337;-87
2023/03/26 06:41:06;;;;;;;3.30;1.60;;;;;;;7.91;100.00;99140.98;213520;1289;139261;-88
2023/03/26 06:46:08;;;;;;;5.00;1.30;;;;;;;7.97;100.00;99141.77;214104;1289;139186;-88
2023/03/26 06:51:09;;;;;;;5.20;1.50;;;;;;;8.05;100.00;99143.81;213572;1291;141556;-87
2023/03/26 06:56:10;;;;;;;3.70;1.60;;;;;;;8.12;100.00;99151.40;214054;1288;104141;-88
2023/03/26 07:01:10;;;;;;;4.80;1.60;;;;;;;8.17;100.00;99151.48;213593;1291;139265;-88
2023/03/26 07:06:11;;;;;;;3.50;1.50;;;;;;;8.25;100.00;99156.61;214162;1289;140197;-88
2023/03/26 07:11:12;;;;;;;4.40;1.40;;;;;;;8.33;100.00;99165.53;213442;1291;139125;-88
2023/03/26 07:16:13;;;;;;;2.20;1.00;;;;;;;8.35;100.00;99162.78;214013;1289;139314;-90
2023/03/26 07:21:14;;;;;;;2.70;1.00;;;;;;;8.35;100.00;99169.22;213490;1292;139408;-87
2023/03/26 07:26:29;;;;;;;2.40;0.80;;;;;;;8.34;100.00;99173.04;214005;1291;98475;-89
2023/03/26 07:31:43;;;;;;;1.40;0.90;;;;;;;8.36;100.00;99176.02;213619;1289;139794;-88
2023/03/26 07:37:16;;;;;;;2.90;1.40;;;;;;;8.38;100.00;99180.40;214017;1289;138921;-89
2023/03/26 07:42:38;;;;;;;3.30;1.40;;;;;;;8.36;100.00;99181.50;213506;1289;139009;-89
2023/03/26 07:47:41;;;;;;;4.90;1.40;;;;;;;8.38;100.00;99182.84;214204;1294;139155;-89
2023/03/26 07:52:41;;;;;;;6.70;2.20;;;;;;;8.41;100.00;99183.53;213605;1289;139392;-88
2023/03/26 07:57:48;;;;;;;4.00;2.30;;;;;;;8.45;100.00;99181.89;213986;1289;139543;-89
2023/03/26 08:03:09;;;;;;;4.70;2.00;;;;;;;8.53;100.00;99182.05;213566;1291;139318;-87
2023/03/26 08:08:28;;;;;;;5.60;2.00;;;;;;;8.61;100.00;99185.88;214335;1292;110690;-89
2023/03/26 08:13:45;;;;;;;5.50;2.00;;;;;;;8.70;100.00;99184.61;213680;1291;138238;-87
2023/03/26 08:18:54;;;;;;;4.90;1.70;;;;;;;8.83;100.00;99181.45;213545;1292;141433;-86
2023/03/26 08:24:13;;;;;;;6.50;2.40;;;;;;;9.01;100.00;99184.08;214264;1289;139768;-87
2023/03/26 08:29:40;;;;;;;6.80;1.90;;;;;;;9.22;99.90;99181.34;213715;1289;139363;-85
2023/03/26 08:34:40;;;;;;;;;;;;;;;9.45;99.61;99184.55;214260;1291;138548;-86
2023/03/26 08:39:41;;;;;;;7.30;2.10;;;;;;;9.56;98.22;99179.33;213901;1291;126759;-85
2023/03/26 08:45:20;;;;;;;3.90;1.60;;;;;;;9.60;97.52;99175.05;214216;1294;138382;-87
2023/03/26 08:50:35;;;;;;;3.20;1.60;;;;;;;9.57;96.63;99174.52;213617;1292;139776;-86
2023/03/26 08:55:39;;;;;;;4.00;1.50;;;;;;;9.61;96.95;99177.10;214170;1288;97935;-86
2023/03/26 09:01:05;;;;;;;5.60;1.70;;;;;;;9.65;96.76;99183.89;213494;1291;138260;-85
2023/03/26 09:06:31;;;;;;;5.40;2.10;;;;;;;9.74;96.89;99180.63;214005;1289;138943;-85
2023/03/26 09:12:00;;;;;;;4.80;1.80;;;;;;;9.77;96.05;99177.86;213453;1291;138582;-85
2023/03/26 09:17:07;;;;;;;7.00;2.60;;;;;;;9.86;95.97;99177.58;213949;1291;138594;-85
2023/03/26 09:22:41;;;;;;;4.30;1.40;;;;;;;10.08;95.20;99174.94;213495;1288;138463;-86
2023/03/26 09:27:58;;;;;;;4.20;1.40;;;;;;;10.38;93.78;99173.70;214047;1293;138974;-85
2023/03/26 09:33:10;;;;;;;5.60;1.60;;;;;;;10.47;92.59;99183.36;213591;1289;139287;-85
2023/03/26 09:38:40;;;;;;;5.50;1.30;;;;;;;10.49;90.90;99186.88;214112;1294;98119;-87
2023/03/26 09:44:05;;;;;;;5.20;1.20;;;;;;;10.49;91.90;99185.47;213586;1291;138534;-86
2023/03/26 09:49:28;;;;;;;3.40;1.20;;;;;;;10.53;91.11;99189.12;213637;1289;139999;-86
2023/03/26 09:54:45;;;;;;;2.00;1.20;;;;;;;10.56;90.93;99184.77;213792;1288;138546;-85
2023/03/26 10:00:09;;;;;;;4.20;1.30;;;;;;;10.67;90.24;99182.95;213899;1289;139395;-85
2023/03/26 10:05:40;;;;;;;3.30;1.50;;;;;;;10.70;89.83;99178.75;214398;1292;140028;-85
2023/03/26 10:11:13;;;;;;;4.00;1.20;;;;;;;10.83;89.73;99182.33;213956;1294;139790;-83
2023/03/26 10:16:38;;;;;;;2.00;1.20;;;;;;;10.89;90.33;99188.08;214192;1289;138786;-86
2023/03/26 10:21:54;;;;;;;3.50;1.30;;;;;;;10.71;91.41;99192.66;213746;1291;139113;-85
2023/03/26 10:27:07;;;;;;;4.90;1.80;;;;;;;10.58;92.48;99191.13;214157;1289;138861;-84
2023/03/26 10:32:29;;;;;;;4.90;1.70;;;;;;;10.63;93.02;99184.08;213727;1291;138984;-85
2023/03/26 10:37:39;;;;;;;3.00;1.50;;;;;;;10.60;93.53;99184.75;215125;1289;139187;-87
2023/03/26 10:42:59;;;;;;;5.40;1.70;;;;;;;10.57;93.38;99185.48;213494;1291;139209;-86
2023/03/26 10:48:02;;;;;;;3.60;1.50;;;;;;;10.60;92.93;99178.92;214174;1292;141498;-84
2023/03/26 10:53:06;;;;;;;2.40;1.20;;;;;;;10.73;92.76;99182.98;213665;1288;139691;-86
2023/03/26 10:58:20;;;;;;;1.50;0.80;;;;;;;10.78;90.12;99188.51;214115;1289;139006;-85
2023/03/26 11:03:30;;;;;;;3.60;1.10;;;;;;;10.68;88.62;99185.69;213606;1292;139569;-86
2023/03/26 11:08:35;;;;;;;2.90;0.90;;;;;;;10.56;90.20;99183.60;214160;1289;139019;-84
2023/03/26 11:13:59;;;;;;;2.80;0.80;;;;;;;10.60;89.56;99184.81;213664;1291;138824;-86
2023/03/26 11:19:09;;;;;;;4.10;1.50;;;;;;;10.70;88.87;99185.27;213529;1289;140087;-85
2023/03/26 11:24:51;;;;;;;3.30;1.20;;;;;;;10.81;88.34;99182.58;214308;1291;138637;-86
2023/03/26 11:30:11;;;;;;;4.70;1.30;;;;;;;11.00;87.85;99179.85;213286;1292;138917;-83
2023/03/26 11:35:14;;;;;;;2.80;1.10;;;;;;;11.36;86.52;99177.80;213955;1289;138950;-86
2023/03/26 11:40:28;;;;;;;6.60;1.80;;;;;;;11.50;85.99;99176.76;213615;1289;139350;-86
2023/03/26 11:45:34;;;;;;;5.90;1.80;;;;;;;11.56;85.17;99173.36;214148;1289;139615;-86
2023/03/26 11:50:45;;;;;;;6.30;2.60;;;;;;;11.52;83.92;99175.39;213568;1291;139602;-86
2023/03/26 11:56:00;;;;;;;6.50;2.90;;;;;;;11.50;84.36;99172.27;214185;1289;111472;-84
2023/03/26 12:01:11;;;;;;;2.50;1.60;;;;;;;11.52;84.95;99174.14;213587;1292;139749;-84
2023/03/26 12:06:24;;;;;;;3.10;1.60;;;;;;;11.62;84.46;99170.56;214032;1292;138705;-86
2023/03/26 12:11:30;;;;;;;3.30;1.30;;;;;;;11.57;82.41;99176.60;214275;1292;139156;-85
2023/03/26 12:16:31;;;;;;;2.90;1.10;;;;;;;11.33;82.87;99180.59;214578;1289;138780;-85
2023/03/26 12:21:48;;;;;;;3.00;1.00;;;;;;;11.18;83.71;99187.20;214087;1288;139599;-84
2023/03/26 12:27:01;;;;;;;2.80;1.10;;;;;;;10.99;85.48;99188.60;214085;1289;138899;-84
2023/03/26 12:32:12;;;;;;;2.90;1.30;;;;;;;10.94;86.86;99175.45;213682;1289;139577;-83
2023/03/26 12:37:52;;;;;;;4.50;1.60;;;;;;;10.97;86.46;99166.37;213900;1288;139437;-83
2023/03/26 12:42:56;;;;;;;4.30;1.80;;;;;;;10.77;86.42;99161.54;212635;1298;139594;-85
2023/03/26 12:47:59;;;;;;;6.50;2.30;;;;;;;10.72;86.34;99155.07;213820;1293;138557;-85
2023/03/26 12:53:20;;;;;;;7.90;2.10;;;;;;;10.74;86.62;99151.90;213954;1289;138856;-86
2023/03/26 12:58:27;;;;;;;2.70;1.30;;;;;;;10.91;86.81;99140.02;214164;1289;139165;-84
2023/03/26 13:03:44;;;;;;;6.20;1.60;;;;;;;11.02;85.32;99137.60;213540;1289;138979;-87
2023/03/26 13:09:09;;;;;;;3.60;1.50;;;;;;;11.10;84.07;99138.46;213446;1289;139918;-86
2023/03/26 13:14:19;;;;;;;4.90;1.50;;;;;;;11.19;84.31;99131.59;213940;1294;111181;-87
2023/03/26 13:19:41;;;;;;;4.70;1.80;;;;;;;11.28;84.01;99134.61;213680;1289;139115;-87
2023/03/26 13:24:53;;;;;;;5.40;2.00;;;;;;;11.42;83.48;99135.70;213975;1289;138587;-88
2023/03/26 13:30:13;;;;;;;7.40;2.20;;;;;;;11.46;83.73;99134.15;213557;1291;139603;-84
2023/03/26 13:35:13;;;;;;;4.80;1.30;;;;;;;11.51;83.43;99135.40;214005;1289;138626;-86
2023/03/26 13:40:28;;;;;;;3.30;1.40;;;;;;;11.44;80.70;99143.07;213418;1289;139738;-85
2023/03/26 13:45:56;;;;;;;7.30;2.70;;;;;;;11.34;79.88;99141.94;214121;1289;138680;-85
2023/03/26 13:51:05;;;;;;;4.00;1.30;;;;;;;11.35;79.62;99135.88;213524;1288;139278;-87
2023/03/26 13:56:12;;;;;;;4.20;1.20;;;;;;;11.39;77.54;99138.17;214041;1289;97950;-87
2023/03/26 14:01:17;;;;;;;3.80;1.50;;;;;;;11.42;75.94;99128.92;213520;1289;139440;-85
2023/03/26 14:06:42;;;;;;;3.50;0.90;;;;;;;11.46;76.91;99130.84;213956;1289;139158;-84
2023/03/26 14:11:55;;;;;;;4.30;1.20;;;;;;;11.52;75.78;99126.83;214986;1289;138995;-85
2023/03/26 14:17:02;;;;;;;8.70;3.20;;;;;;;11.53;75.90;99125.16;217927;1288;138947;-84
2023/03/26 14:22:31;;;;;;;10.90;2.80;;;;;;;11.55;75.52;99128.12;217383;1289;139018;-84
2023/03/26 14:27:39;;;;;;;4.50;1.70;;;;;;;11.56;73.32;99133.00;217887;1290;139393;-84
2023/03/26 14:32:52;;;;;;;8.00;3.70;;;;;;;11.57;73.64;99130.70;217268;1288;139294;-84
2023/03/26 14:38:11;;;;;;;3.60;1.40;;;;;;;11.59;74.02;99133.75;218026;1288;104443;-85
2023/03/26 14:43:33;;;;;;;4.20;1.40;;;;;;;11.59;74.05;99132.80;217299;1289;140009;-85
2023/03/26 14:48:46;;;;;;;3.70;1.10;;;;;;;11.55;73.01;99136.39;217793;1288;138625;-84
2023/03/26 14:53:51;;;;;;;3.50;1.30;;;;;;;11.55;72.98;99134.90;217572;1291;138800;-85
2023/03/26 14:59:31;;;;;;;4.20;1.30;;;;;;;11.55;72.15;99136.14;217353;1288;139553;-86
2023/03/26 15:04:53;;;;;;;4.40;1.30;;;;;;;11.53;72.03;99135.39;217843;1291;138785;-84
2023/03/26 15:10:05;;;;;;;5.10;1.40;;;;;;;11.49;71.78;99137.71;217300;1290;139571;-85
2023/03/26 15:15:36;;;;;;;7.90;1.50;;;;;;;11.43;71.57;99141.77;217926;1289;138773;-85
2023/03/26 15:20:56;;;;;;;3.70;1.30;;;;;;;11.37;72.36;99147.88;217346;1288;140067;-85
2023/03/26 15:26:26;;;;;;;3.90;1.30;;;;;;;11.32;72.03;99143.45;217882;1289;108564;-85
2023/03/26 15:31:55;;;;;;;4.90;1.00;;;;;;;11.27;72.66;99146.27;217342;1288;140295;-86
2023/03/26 15:37:33;;;;;;;4.10;1.30;;;;;;;11.18;72.57;99146.85;217858;1289;139092;-85
2023/03/26 15:42:48;;;;;;;5.50;2.00;;;;;;;11.14;72.35;99139.90;217390;1288;139040;-85
2023/03/26 15:48:12;;;;;;;2.50;1.40;;;;;;;11.06;72.50;99138.74;217838;1288;139927;-85
2023/03/26 15:53:18;;;;;;;5.00;1.70;;;;;;;10.97;72.51;99142.63;217351;1291;138723;-85
2023/03/26 15:58:30;;;;;;;6.00;1.70;;;;;;;10.88;72.44;99141.13;217815;1289;138780;-85
2023/03/26 16:03:41;;;;;;;6.40;1.80;;;;;;;10.80;73.14;99142.48;217453;1291;139249;-84
2023/03/26 16:09:15;;;;;;;5.80;2.20;;;;;;;10.73;75.01;99141.70;217782;1290;139363;-85
2023/03/26 16:14:34;;;;;;;5.30;2.00;;;;;;;10.67;75.01;99138.61;217426;1288;535982;-85
2023/03/26 16:19:46;;;;;;;3.50;1.40;;;;;;;10.59;74.91;99124.46;217450;1287;139805;-84
2023/03/26 16:25:16;;;;;;;3.70;1.60;;;;;;;10.53;75.04;99119.41;217879;1289;138560;-85
2023/03/26 16:30:30;;;;;;;4.50;1.50;;;;;;;10.47;75.35;99118.92;217366;1291;139177;-84
2023/03/26 16:35:52;;;;;;;3.90;1.10;;;;;;;10.38;74.96;99118.39;217888;1291;138669;-85
2023/03/26 16:41:00;;;;;;;4.90;1.50;;;;;;;10.26;76.17;99118.33;217400;1289;138695;-85
2023/03/26 16:46:19;;;;;;;5.50;1.80;;;;;;;10.14;74.90;99120.86;217915;1288;138773;-87
2023/03/26 16:51:49;;;;;;;8.50;2.00;;;;;;;9.99;74.59;99120.80;217362;1291;139258;-85
2023/03/26 16:57:11;;;;;;;8.00;2.20;;;;;;;9.83;75.22;99117.30;217888;1291;139182;-85
2023/03/26 17:02:23;;;;;;;4.70;1.50;;;;;;;9.68;75.76;99116.95;217383;1288;138393;-85
2023/03/26 17:07:56;;;;;;;4.50;1.90;;;;;;;9.52;76.69;99113.03;217919;1289;138238;-85
2023/03/26 17:13:06;;;;;;;11.50;3.00;;;;;;;9.36;77.80;99112.66;217252;1291;139581;-85
2023/03/26 17:18:21;;;;;;;9.70;3.30;;;;;;;9.19;78.63;99114.15;217859;1288;138300;-82
2023/03/26 17:23:59;;;;;;;8.10;3.80;;;;;;;9.02;79.28;99117.19;217333;1291;138765;-84
2023/03/26 17:29:00;;;;;;;;;;;;;;;8.84;80.13;99121.41;217340;1289;139260;-84
2023/03/26 17:34:32;;;;;;;5.90;2.60;;;;;;;8.68;81.24;99122.56;217889;1288;124834;-84
2023/03/26 17:39:39;;;;;;;6.30;2.30;;;;;;;8.52;82.26;99124.39;217360;1288;138451;-83
2023/03/26 17:44:45;;;;;;;;;;;;;;;8.34;82.79;99124.58;217918;1288;138486;-85
2023/03/26 17:49:48;;;;;;;11.30;5.60;;;;;;;8.15;84.28;99127.05;217533;1289;126277;-84
2023/03/26 17:54:53;;;;;;;14.00;7.20;;;;;;;7.99;84.59;99126.90;217977;1288;138457;-83
2023/03/26 17:59:59;;;;;;;16.30;8.50;;;;;;;7.81;85.15;99126.89;217341;1289;139458;-83
2023/03/26 18:05:03;;;;;;;21.30;11.40;;;;;;;7.63;85.68;99131.46;217807;1289;138539;-85
2023/03/26 18:10:32;;;;;;;24.00;10.90;;;;;;;7.46;86.20;99133.70;217364;1290;139556;-83
2023/03/26 18:15:41;;;;;;;20.50;10.10;;;;;;;7.25;86.81;99137.39;217575;1294;139239;-83
2023/03/26 18:20:45;;;;;;;18.80;9.80;;;;;;;7.11;87.49;99142.17;217347;1291;139103;-83
2023/03/26 18:26:09;;;;;;;23.50;11.50;;;;;;;6.98;88.18;99145.32;218033;1289;96524;-83
2023/03/26 18:31:17;;;;;;;21.00;10.10;;;;;;;6.82;88.65;99145.72;217356;1289;138926;-83
2023/03/26 18:36:19;;;;;;;21.60;11.70;;;;;;;6.68;89.31;99141.34;217833;1288;139634;-82
2023/03/26 18:41:40;;;;;;;29.10;15.30;;;;;;;6.53;89.63;99139.52;217390;1288;138918;-83
2023/03/26 18:46:41;;;;;;;39.00;18.10;;;;;;;6.38;90.38;99139.98;217843;1292;140567;-84
2023/03/26 18:51:43;;;;;;;38.80;17.10;;;;;;;6.24;90.95;99140.65;217385;1289;140066;-84
2023/03/26 18:56:47;;;;;;;49.20;22.80;;;;;;;6.12;91.24;99144.38;218002;1289;138866;-84
2023/03/26 19:01:48;;;;;;;57.80;25.10;;;;;;;6.01;91.86;99142.33;217446;1289;139608;-83
2023/03/26 19:06:53;;;;;;;51.50;20.90;;;;;;;5.87;92.10;99140.19;217902;1288;141302;-82
2023/03/26 19:12:13;;;;;;;40.90;17.30;;;;;;;5.71;92.69;99134.78;217296;1289;139076;-84
2023/03/26 19:17:13;;;;;;;33.40;14.70;;;;;;;5.65;93.60;99134.50;217901;1290;138788;-85
2023/03/26 19:22:15;;;;;;;32.70;13.70;;;;;;;5.58;94.06;99134.96;217200;1289;139009;-84
2023/03/26 19:27:17;;;;;;;29.90;13.90;;;;;;;5.48;94.08;99134.78;217887;1289;138859;-84
2023/03/26 19:32:20;;;;;;;33.90;15.00;;;;;;;5.37;94.51;99137.63;217360;1289;139601;-84
2023/03/26 19:37:23;;;;;;;23.00;11.10;;;;;;;5.26;94.74;99136.17;217819;1289;138816;-84
2023/03/26 19:42:28;;;;;;;18.40;8.40;;;;;;;5.15;95.07;99125.23;217365;1291;139079;-85
2023/03/26 19:47:39;;;;;;;18.40;8.70;;;;;;;5.08;95.42;99120.94;218066;1289;139014;-85
2023/03/26 19:52:40;;;;;;;17.40;7.60;;;;;;;5.01;96.11;99120.54;217606;1292;139109;-85
2023/03/26 19:57:40;;;;;;;18.70;8.40;;;;;;;4.96;96.58;99121.64;218178;1289;138385;-84
2023/03/26 20:02:42;;;;;;;18.50;7.80;;;;;;;4.89;96.94;99119.75;217429;1288;139542;-84
2023/03/26 20:07:43;;;;;;;30.80;17.50;;;;;;;4.79;97.03;99120.03;218001;1289;96063;-84
2023/03/26 20:12:44;;;;;;;41.60;23.70;;;;;;;4.76;97.49;99124.04;217372;1292;138686;-84
2023/03/26 20:17:45;;;;;;;36.50;22.30;;;;;;;4.73;97.83;99117.61;217844;1289;138682;-85
2023/03/26 20:22:46;;;;;;;34.10;18.90;;;;;;;4.66;98.23;99114.25;217301;1292;139351;-85
2023/03/26 20:27:47;;;;;;;27.80;16.80;;;;;;;4.57;98.04;99115.77;217909;1289;138646;-85
2023/03/26 20:32:52;;;;;;;34.90;19.60;;;;;;;4.47;98.36;99112.52;217341;1288;139474;-85
2023/03/26 20:37:53;;;;;;;34.20;18.50;;;;;;;4.40;98.90;99114.59;217857;1289;96438;-85
2023/03/26 20:42:53;;;;;;;30.80;17.70;;;;;;;4.31;99.03;99114.14;217358;1289;139178;-84
2023/03/26 20:47:53;;;;;;;29.20;15.20;;;;;;;4.21;99.18;99109.48;217772;1289;140629;-85
2023/03/26 20:52:54;;;;;;;29.30;15.00;;;;;;;4.12;99.06;99104.36;217363;1289;210375;-85
2023/03/26 20:57:54;;;;;;;31.00;16.10;;;;;;;4.09;99.51;99102.62;217833;1288;138906;-85
2023/03/26 21:02:55;;;;;;;29.80;14.40;;;;;;;4.05;99.90;99105.73;217345;1289;139472;-84
2023/03/26 21:07:58;;;;;;;22.10;9.30;;;;;;;4.03;100.00;99110.91;218005;1291;96593;-86
2023/03/26 21:13:21;;;;;;;17.30;8.20;;;;;;;4.05;100.00;99119.02;217291;1289;139291;-85
2023/03/26 21:18:22;;;;;;;19.50;8.50;;;;;;;4.11;100.00;99126.05;217740;1289;138599;-85
2023/03/26 21:23:32;;;;;;;22.60;10.10;;;;;;;4.19;100.00;99133.40;217360;1289;139426;-86
2023/03/26 21:28:47;;;;;;;22.40;9.50;;;;;;;4.25;100.00;99137.70;217811;1289;139419;-87
2023/03/26 21:33:49;;;;;;;26.30;10.00;;;;;;;4.28;100.00;99134.40;217542;1289;139436;-86
2023/03/26 21:38:49;;;;;;;22.80;8.10;;;;;;;4.29;100.00;99134.80;217367;1289;139296;-86
2023/03/26 21:43:50;;;;;;;22.90;8.00;;;;;;;4.29;100.00;99138.23;217950;1288;96664;-85
2023/03/26 21:48:51;;;;;;;17.20;7.90;;;;;;;4.27;100.00;99135.79;217311;1289;139072;-86
2023/03/26 21:53:52;;;;;;;19.60;7.10;;;;;;;4.26;100.00;99137.48;217876;1288;138766;-86
2023/03/26 21:59:03;;;;;;;19.70;7.00;;;;;;;4.23;100.00;99137.14;217324;1288;139072;-86
2023/03/26 22:04:12;;;;;;;25.00;8.30;;;;;;;4.21;100.00;99139.90;217740;1289;138689;-85
2023/03/26 22:09:13;;;;;;;19.50;6.90;;;;;;;4.17;100.00;99132.44;217256;1289;139393;-85
2023/03/26 22:14:13;;;;;;;19.80;6.80;;;;;;;4.13;100.00;99135.02;217968;1292;96556;-86
2023/03/26 22:19:14;;;;;;;24.30;7.80;;;;;;;4.09;100.00;99136.14;217375;1289;140023;-86
2023/03/26 22:24:14;;;;;;;16.90;6.10;;;;;;;4.05;100.00;99144.08;217819;1291;138499;-86
2023/03/26 22:29:15;;;;;;;15.50;5.50;;;;;;;4.01;100.00;99146.80;217318;1291;141902;-86
2023/03/26 22:34:16;;;;;;;15.50;5.70;;;;;;;3.96;100.00;99149.54;217840;1289;139451;-85
2023/03/26 22:39:17;;;;;;;18.60;5.40;;;;;;;3.92;100.00;99157.46;217396;1289;139465;-85
2023/03/26 22:44:17;;;;;;;27.30;7.10;;;;;;;3.87;100.00;99157.70;218045;1291;97673;-86
2023/03/26 22:49:17;;;;;;;15.50;5.80;;;;;;;3.82;100.00;99163.75;217413;1288;139403;-85
2023/03/26 22:54:18;;;;;;;15.40;4.60;;;;;;;3.74;100.00;99163.45;217959;1289;141081;-85
2023/03/26 22:59:18;;;;;;;21.70;6.10;;;;;;;3.68;100.00;99163.73;217296;1289;139370;-85
2023/03/26 23:04:25;;;;;;;15.90;5.80;;;;;;;3.61;100.00;99158.25;217902;1289;139571;-85
2023/03/26 23:09:26;;;;;;;15.70;5.00;;;;;;;3.53;100.00;99159.59;217250;1288;139756;-86
2023/03/26 23:14:27;;;;;;;15.90;5.50;;;;;;;3.45;100.00;99156.40;218007;1289;96242;-85
2023/03/26 23:19:28;;;;;;;15.80;4.40;;;;;;;3.35;100.00;99153.49;217394;1288;139570;-85
2023/03/26 23:24:29;;;;;;;13.60;4.70;;;;;;;3.27;100.00;99157.30;217951;1288;139230;-85
2023/03/26 23:29:30;;;;;;;15.80;4.80;;;;;;;3.21;100.00;99167.67;217340;1290;139522;-86
2023/03/26 23:34:31;;;;;;;21.10;6.10;;;;;;;3.17;100.00;99184.83;217903;1289;140040;-85
2023/03/26 23:39:32;;;;;;;19.00;7.20;;;;;;;3.14;100.00;99190.21;217346;1291;141818;-85